AirNav   ATP
 
 877 users online  

KNFE Fentress Naval Auxiliary Field
Fentress, Virginia, USA

GOING TO FENTRESS?


FAA INFORMATION EFFECTIVE 19 JULY 2018

Location

FAA Identifier: NFE
Lat/Long: 36-41-31.3310N / 076-08-04.4305W
36-41.522183N / 076-08.073842W
36.6920364 / -76.1345640
(estimated)
Elevation: 16 ft. / 5 m (estimated)
Variation: 09W (1985)
Time zone: UTC -4 (UTC -5 during Standard Time)
Zip code: 23322

Airport Operations

Airport use: Private use. Permission required prior to landing
Activation date: 08/1943
Control tower: no
ARTCC: WASHINGTON CENTER
FSS: LEESBURG FLIGHT SERVICE STATION
Attendance: UNATNDD
Segmented circle: no
Lights: RY LGTS OPERATED BY CRASH CREW DURING SCHEDULED OPNS.

Airport Communications

OCEANA APPROACH: 123.9
OCEANA DEPARTURE: 123.9
WX AWOS-3 at CPK (9 nm W): 123.675 (757-204-4290)
WX ASOS at NTU (9 nm NE): PHONE DSN 433-3619 or 757-433-3619
WX ASOS at ORF (13 nm N): PHONE 757-460-9348
WX AWOS-3PT at PVG (16 nm W): 118.375 (757-465-2175)
WX AWOS-3 at ONX (18 nm S): 119.775 (252-453-8939)

Nearby radio navigation aids

VOR radial/distance  VOR name  Freq  Var
ORFr172/12.4NORFOLK VORTAC116.9007W
ECGr011/26.1ELIZABETH CITY VOR/DME112.5007W
CCVr199/39.9CAPE CHARLES VORTAC112.2010W

 
NDB name  Hdg/Dist  Freq  Var  ID
INGLE157/10.532909WOR --- .-.
WOODVILLE027/26.925410WLLW .-.. .-.. .--

Airport Services

Runway Information

Runway 5/23

Dimensions: 8004 x 175 ft. / 2440 x 53 m
Surface: asphalt
Weight bearing capacity: 
PCN 40 /R/C/W/T
Runway edge lights: low intensity
RUNWAY 5  RUNWAY 23
Latitude: 36-41.014033N36-42.030333N
Longitude: 076-08.595917W076-07.551767W
Elevation: 14.5 ft.14.2 ft.
Traffic pattern: leftleft
Runway heading: 049 magnetic, 040 true228 magnetic, 219 true
Touchdown point: yes, no lightsyes, no lights

Airport Ownership and Management from official FAA records

Ownership: U.S. Navy
Owner: US NAVY
OCEANOGRAPHIC OFC - CODE 3142
WASHINGTON, DC 20373

Instrument Procedures

There are no published instrument procedures at KNFE.

Some nearby airports with instrument procedures:

KCPK - Chesapeake Regional Airport (9 nm W)
KNTU - Oceana Naval Air Station (Apollo Soucek Field) (9 nm NE)
KORF - Norfolk International Airport (13 nm N)
KPVG - Hampton Roads Executive Airport (16 nm W)
KNGU - Norfolk Naval Station (Chambers Field) (16 nm NW)
KONX - Currituck County Regional Airport (18 nm S)
 
Loc | Ops | Rwys | IFR | FBO | Links
Com | Nav | Svcs | Stats | Notes


 
Area around KNFE (Fentress Naval Auxiliary Field)
 
Road maps at: MapQuest Bing Google
 
Aerial photo
WARNING: Photo may not be current or correct
Aerial photo of KNFE (Fentress Naval Auxiliary Field)
Do you have a better or more recent aerial photo of Fentress Naval Auxiliary Field that you would like to share? If so, please send us your photo.

 
Sectional chart

 
Airport distance calculator
Flying to Fentress Naval Auxiliary Field? Find the distance to fly.

From to KNFE

Sunrise and sunset
Times for 22-Jul-2018
 Local
(UTC-4)
 Zulu
(UTC)
Morning civil twilight05:3409:34
Sunrise06:0310:03
Sunset20:1800:18
Evening civil twilight20:4800:48

Current date and time
Zulu (UTC)  23-Jul-2018 02:54:08
Local (UTC-4)  22-Jul-2018 22:54:08
 
METAR
KNFE 230235Z AUTO 18010KT 10SM -TSRA SCT018 BKN043 BKN070 27/24 A2987 RMK AO2 RAB19 TSB23 P0000 T02720239 $
KCPK 
9nm W 
230235Z AUTO 16007KT 10SM TS SCT110 23/21 A2988 RMK AO2 LTG DSNT N T02340212
KNTU 
9nm NE 
230239Z 14011KT 10SM SCT016 BKN020 BKN055 27/23 A2986 RMK AO2 T2 SET T02670233
KORF 
13nm N 
230238Z 17011G19KT 10SM SCT018 SCT048 28/25 A2985 RMK AO2 T02780250
KNGU 
15nm NW 
230159Z 15008KT 10SM FEW028 BKN170 OVC210 26/23 A2987 RMK AO2 RAB00E45 TSE29 SLP114 OCNL LTGICCC DSNT S-SW CB DSNT S-SW T1 SET P0002 T02610228
KPVG 
16nm W 
230230Z 17008KT 10SM -TSRA FEW016 SCT042 BKN080 24/23 A2986 RMK AO2 LTG DSNT S TSE10B24RAB03 P0003
KONX 
18nm S 
230240Z AUTO 10SM SCT014 SCT021 OVC027 26/20 A2991 RMK AO2 T02620203
TAF
KNTU 
9nm NE 
2223/2323 14008KT 9999 VCSH SCT020 BKN120 QNH2980INS TEMPO 2300/2304 VRB20G30KT 4800 TSRA BKN020CB OVC100 FM230400 15015G20KT 8000 -SHRA BR BKN005 OVC100 QNH2985INS FM231400 16015G20KT 6000 SHRA BR VCTS BKN020CB OVC080 QNH2990INS TEMPO 2314/2320 VRB20G30KT 4800 TSRA BKN010CB OVC050 T21/2310Z T27/2319Z FN00160
KORF 
13nm N 
230218Z 2302/2324 17009KT P6SM -SHRA SCT015 BKN040 TEMPO 2302/2305 VRB20G30KT 2SM TSRA OVC015CB FM230600 16010KT P6SM BKN030 FM231200 15018G24KT P6SM OVC050 FM232000 15012KT P6SM BKN060
KNGU 
15nm NW 
2223/2323 15008KT 9999 VCTS SCT020CB BKN120 QNH2980INS TEMPO 2300/2304 VRB20G30KT 4800 TSRA BKN020CB OVC100 FM230400 15015G20KT 8000 -SHRA BR BKN005 OVC100 QNH2985INS FM231400 16015G20KT 6000 SHRA BR VCTS BKN020CB OVC080 QNH2990INS TEMPO 2314/2320 VRB20G30KT 4800 TSRA BKN010CB OVC050 T22/2310Z T28/2319Z FN00160
NOTAMs
Click for the latest NOTAMs
NOTAMs are issued by the DoD/FAA and will open in a separate window not controlled by AirNav.

 

 
 

Would you like to see your business listed on this page?

 If your business provides an interesting product or service to pilots, flight crews, aircraft, or users of the Fentress Naval Auxiliary Field, you should consider listing it here.  To start the listing process, click on the button below
 
Add a business
 

Other Pages about Fentress Naval Auxiliary Field

Update a link
 
Copyright © AirNav, LLC. All rights reserved. Privacy Policy  Contact